sensor_id;sensor_type;location;lat;lon;timestamp;pressure;altitude;pressure_sealevel;temperature;humidity
62055;BME280;48653;51.742;-1.256;2023-04-28T00:01:54;100114.01;;;13.37;55.55
62055;BME280;48653;51.742;-1.256;2023-04-28T00:04:20;100109.92;;;13.09;56.37
62055;BME280;48653;51.742;-1.256;2023-04-28T00:06:45;100111.60;;;12.91;56.87
62055;BME280;48653;51.742;-1.256;2023-04-28T00:09:10;100109.21;;;13.29;56.70
62055;BME280;48653;51.742;-1.256;2023-04-28T00:11:36;100106.21;;;13.22;56.56
62055;BME280;48653;51.742;-1.256;2023-04-28T00:14:02;100101.08;;;13.35;56.84
62055;BME280;48653;51.742;-1.256;2023-04-28T00:16:26;100099.83;;;13.58;56.30
62055;BME280;48653;51.742;-1.256;2023-04-28T00:18:52;100099.08;;;13.27;56.21
62055;BME280;48653;51.742;-1.256;2023-04-28T00:21:17;100095.28;;;13.46;56.07
62055;BME280;48653;51.742;-1.256;2023-04-28T00:23:43;100090.28;;;13.19;55.63
62055;BME280;48653;51.742;-1.256;2023-04-28T00:26:08;100083.27;;;13.49;55.43
62055;BME280;48653;51.742;-1.256;2023-04-28T00:28:34;100078.70;;;13.31;56.33
62055;BME280;48653;51.742;-1.256;2023-04-28T00:30:59;100080.16;;;13.44;55.56
62055;BME280;48653;51.742;-1.256;2023-04-28T00:33:25;100075.73;;;13.26;56.52
62055;BME280;48653;51.742;-1.256;2023-04-28T00:35:58;100074.11;;;13.23;57.53
62055;BME280;48653;51.742;-1.256;2023-04-28T00:38:15;100075.06;;;13.33;57.13
62055;BME280;48653;51.742;-1.256;2023-04-28T00:40:41;100075.25;;;13.07;57.09
62055;BME280;48653;51.742;-1.256;2023-04-28T00:43:06;100072.34;;;12.63;58.47
62055;BME280;48653;51.742;-1.256;2023-04-28T00:45:32;100070.56;;;12.90;57.45
62055;BME280;48653;51.742;-1.256;2023-04-28T00:47:58;100073.97;;;11.95;60.50
62055;BME280;48653;51.742;-1.256;2023-04-28T00:50:23;100071.78;;;12.89;58.42
62055;BME280;48653;51.742;-1.256;2023-04-28T00:52:49;100071.87;;;12.78;57.97
62055;BME280;48653;51.742;-1.256;2023-04-28T00:55:14;100070.71;;;13.30;57.63
62055;BME280;48653;51.742;-1.256;2023-04-28T00:57:39;100065.39;;;13.33;57.00
62055;BME280;48653;51.742;-1.256;2023-04-28T01:00:05;100066.84;;;13.52;57.22
62055;BME280;48653;51.742;-1.256;2023-04-28T01:02:30;100068.64;;;13.27;56.78
62055;BME280;48653;51.742;-1.256;2023-04-28T01:04:55;100070.91;;;13.35;56.08
62055;BME280;48653;51.742;-1.256;2023-04-28T01:07:20;100071.50;;;13.34;56.32
62055;BME280;48653;51.742;-1.256;2023-04-28T01:09:45;100069.87;;;13.25;56.39
62055;BME280;48653;51.742;-1.256;2023-04-28T01:12:11;100068.48;;;13.26;58.07
62055;BME280;48653;51.742;-1.256;2023-04-28T01:14:36;100066.22;;;13.24;57.50
62055;BME280;48653;51.742;-1.256;2023-04-28T01:17:02;100065.73;;;12.63;57.95
62055;BME280;48653;51.742;-1.256;2023-04-28T01:19:26;100063.28;;;13.00;57.73
62055;BME280;48653;51.742;-1.256;2023-04-28T01:21:51;100060.36;;;13.28;56.98
62055;BME280;48653;51.742;-1.256;2023-04-28T01:24:17;100058.99;;;13.19;56.83
62055;BME280;48653;51.742;-1.256;2023-04-28T01:26:42;100057.93;;;13.37;57.00
62055;BME280;48653;51.742;-1.256;2023-04-28T01:29:08;100059.92;;;13.64;56.91
62055;BME280;48653;51.742;-1.256;2023-04-28T01:31:33;100057.21;;;13.62;56.17
62055;BME280;48653;51.742;-1.256;2023-04-28T01:33:58;100060.17;;;13.52;56.18
62055;BME280;48653;51.742;-1.256;2023-04-28T01:36:24;100061.71;;;13.63;55.93
62055;BME280;48653;51.742;-1.256;2023-04-28T01:38:49;100062.69;;;13.45;56.35
62055;BME280;48653;51.742;-1.256;2023-04-28T01:41:14;100064.88;;;13.64;55.97
62055;BME280;48653;51.742;-1.256;2023-04-28T01:43:40;100065.79;;;13.61;56.39
62055;BME280;48653;51.742;-1.256;2023-04-28T01:46:05;100068.09;;;13.45;56.02
62055;BME280;48653;51.742;-1.256;2023-04-28T01:48:30;100060.78;;;13.65;56.40
62055;BME280;48653;51.742;-1.256;2023-04-28T01:50:55;100054.55;;;13.20;57.25
62055;BME280;48653;51.742;-1.256;2023-04-28T01:53:21;100050.29;;;13.08;57.97
62055;BME280;48653;51.742;-1.256;2023-04-28T01:55:46;100054.01;;;13.39;56.71
62055;BME280;48653;51.742;-1.256;2023-04-28T01:58:11;100053.38;;;13.57;55.94
62055;BME280;48653;51.742;-1.256;2023-04-28T02:00:37;100055.10;;;13.79;55.78
62055;BME280;48653;51.742;-1.256;2023-04-28T02:03:03;100057.54;;;13.77;55.87
62055;BME280;48653;51.742;-1.256;2023-04-28T02:05:28;100058.46;;;14.03;55.49
62055;BME280;48653;51.742;-1.256;2023-04-28T02:07:53;100058.85;;;13.92;55.99
62055;BME280;48653;51.742;-1.256;2023-04-28T02:10:18;100059.12;;;13.89;55.83
62055;BME280;48653;51.742;-1.256;2023-04-28T02:12:44;100061.32;;;13.60;56.49
62055;BME280;48653;51.742;-1.256;2023-04-28T02:15:10;100060.13;;;12.73;58.48
62055;BME280;48653;51.742;-1.256;2023-04-28T02:17:34;100062.87;;;13.74;56.35
62055;BME280;48653;51.742;-1.256;2023-04-28T02:19:59;100064.55;;;13.63;56.14
62055;BME280;48653;51.742;-1.256;2023-04-28T02:22:25;100067.40;;;13.56;56.93
62055;BME280;48653;51.742;-1.256;2023-04-28T02:24:50;100067.65;;;13.57;56.97
62055;BME280;48653;51.742;-1.256;2023-04-28T02:27:15;100067.49;;;13.48;57.97
62055;BME280;48653;51.742;-1.256;2023-04-28T02:29:40;100071.21;;;13.29;57.26
62055;BME280;48653;51.742;-1.256;2023-04-28T02:32:06;100072.32;;;13.79;56.62
62055;BME280;48653;51.742;-1.256;2023-04-28T02:34:31;100075.92;;;13.47;57.89
62055;BME280;48653;51.742;-1.256;2023-04-28T02:36:57;100075.52;;;13.33;57.80
62055;BME280;48653;51.742;-1.256;2023-04-28T02:39:22;100079.16;;;13.59;57.85
62055;BME280;48653;51.742;-1.256;2023-04-28T02:41:48;100078.30;;;13.16;58.88
62055;BME280;48653;51.742;-1.256;2023-04-28T02:44:13;100078.78;;;13.44;58.15
62055;BME280;48653;51.742;-1.256;2023-04-28T02:46:39;100078.40;;;13.37;58.14
62055;BME280;48653;51.742;-1.256;2023-04-28T02:49:04;100079.32;;;13.74;57.80
62055;BME280;48653;51.742;-1.256;2023-04-28T02:51:30;100076.67;;;13.80;57.17
62055;BME280;48653;51.742;-1.256;2023-04-28T02:53:55;100075.87;;;13.76;57.64
62055;BME280;48653;51.742;-1.256;2023-04-28T02:56:20;100071.71;;;13.35;58.27
62055;BME280;48653;51.742;-1.256;2023-04-28T02:58:46;100075.03;;;13.78;57.54
62055;BME280;48653;51.742;-1.256;2023-04-28T03:01:11;100077.17;;;13.72;57.58
62055;BME280;48653;51.742;-1.256;2023-04-28T03:03:37;100079.33;;;13.29;58.89
62055;BME280;48653;51.742;-1.256;2023-04-28T03:06:02;100081.85;;;13.09;59.04
62055;BME280;48653;51.742;-1.256;2023-04-28T03:08:27;100083.79;;;13.59;57.98
62055;BME280;48653;51.742;-1.256;2023-04-28T03:10:52;100083.96;;;13.60;58.02
62055;BME280;48653;51.742;-1.256;2023-04-28T03:13:18;100086.76;;;13.72;58.08
62055;BME280;48653;51.742;-1.256;2023-04-28T03:15:43;100084.51;;;13.44;58.93
62055;BME280;48653;51.742;-1.256;2023-04-28T03:18:08;100082.99;;;13.21;59.18
62055;BME280;48653;51.742;-1.256;2023-04-28T03:20:33;100086.68;;;12.96;60.04
62055;BME280;48653;51.742;-1.256;2023-04-28T03:22:58;100088.60;;;13.45;58.31
62055;BME280;48653;51.742;-1.256;2023-04-28T03:25:24;100089.46;;;13.17;59.29
62055;BME280;48653;51.742;-1.256;2023-04-28T03:27:49;100086.78;;;13.27;58.93
62055;BME280;48653;51.742;-1.256;2023-04-28T03:30:14;100091.92;;;13.61;58.90
62055;BME280;48653;51.742;-1.256;2023-04-28T03:32:39;100089.97;;;12.99;60.27
62055;BME280;48653;51.742;-1.256;2023-04-28T03:35:05;100095.07;;;12.84;60.78
62055;BME280;48653;51.742;-1.256;2023-04-28T03:37:30;100095.21;;;13.41;59.49
62055;BME280;48653;51.742;-1.256;2023-04-28T03:39:55;100096.17;;;13.53;58.78
62055;BME280;48653;51.742;-1.256;2023-04-28T03:42:20;100096.19;;;13.50;59.00
62055;BME280;48653;51.742;-1.256;2023-04-28T03:44:45;100090.27;;;13.30;60.19
62055;BME280;48653;51.742;-1.256;2023-04-28T03:47:10;100086.36;;;13.42;59.26
62055;BME280;48653;51.742;-1.256;2023-04-28T03:49:36;100085.88;;;13.00;60.83
62055;BME280;48653;51.742;-1.256;2023-04-28T03:52:01;100087.29;;;12.84;61.84
62055;BME280;48653;51.742;-1.256;2023-04-28T03:54:26;100089.71;;;12.97;61.47
62055;BME280;48653;51.742;-1.256;2023-04-28T03:56:51;100086.41;;;12.68;61.53
62055;BME280;48653;51.742;-1.256;2023-04-28T03:59:16;100089.30;;;12.90;59.79
62055;BME280;48653;51.742;-1.256;2023-04-28T04:01:42;100089.78;;;13.41;59.03
62055;BME280;48653;51.742;-1.256;2023-04-28T04:04:07;100091.58;;;13.37;58.94
62055;BME280;48653;51.742;-1.256;2023-04-28T04:06:32;100095.17;;;13.51;58.35
62055;BME280;48653;51.742;-1.256;2023-04-28T04:08:57;100097.84;;;13.44;58.51
62055;BME280;48653;51.742;-1.256;2023-04-28T04:11:22;100098.28;;;13.68;58.41
62055;BME280;48653;51.742;-1.256;2023-04-28T04:13:47;100101.03;;;14.00;57.30
62055;BME280;48653;51.742;-1.256;2023-04-28T04:16:12;100101.83;;;13.63;57.54
62055;BME280;48653;51.742;-1.256;2023-04-28T04:18:37;100099.65;;;14.18;57.12
62055;BME280;48653;51.742;-1.256;2023-04-28T04:21:02;100100.21;;;14.03;56.57
62055;BME280;48653;51.742;-1.256;2023-04-28T04:23:27;100098.45;;;14.24;56.64
62055;BME280;48653;51.742;-1.256;2023-04-28T04:25:52;100100.16;;;13.84;57.27
62055;BME280;48653;51.742;-1.256;2023-04-28T04:28:17;100100.65;;;13.72;56.75
62055;BME280;48653;51.742;-1.256;2023-04-28T04:30:43;100103.11;;;14.18;56.30
62055;BME280;48653;51.742;-1.256;2023-04-28T04:33:08;100102.88;;;14.05;57.07
62055;BME280;48653;51.742;-1.256;2023-04-28T04:35:33;100106.07;;;13.68;58.11
62055;BME280;48653;51.742;-1.256;2023-04-28T04:37:59;100107.98;;;12.89;59.52
62055;BME280;48653;51.742;-1.256;2023-04-28T04:40:23;100110.72;;;13.05;59.77
62055;BME280;48653;51.742;-1.256;2023-04-28T04:42:49;100112.24;;;12.81;60.23
62055;BME280;48653;51.742;-1.256;2023-04-28T04:45:14;100113.93;;;12.97;60.10
62055;BME280;48653;51.742;-1.256;2023-04-28T04:47:40;100117.63;;;13.26;59.30
62055;BME280;48653;51.742;-1.256;2023-04-28T04:50:06;100121.60;;;12.83;61.63
62055;BME280;48653;51.742;-1.256;2023-04-28T04:52:30;100125.80;;;12.86;61.63
62055;BME280;48653;51.742;-1.256;2023-04-28T04:54:55;100122.07;;;13.00;60.64
62055;BME280;48653;51.742;-1.256;2023-04-28T04:57:20;100127.35;;;13.50;60.05
62055;BME280;48653;51.742;-1.256;2023-04-28T04:59:45;100129.64;;;13.61;59.82
62055;BME280;48653;51.742;-1.256;2023-04-28T05:02:10;100130.11;;;13.21;59.63
62055;BME280;48653;51.742;-1.256;2023-04-28T05:04:36;100134.11;;;13.63;58.35
62055;BME280;48653;51.742;-1.256;2023-04-28T05:07:01;100139.26;;;13.54;58.97
62055;BME280;48653;51.742;-1.256;2023-04-28T05:09:26;100140.84;;;13.21;59.40
62055;BME280;48653;51.742;-1.256;2023-04-28T05:11:51;100138.87;;;13.08;60.31
62055;BME280;48653;51.742;-1.256;2023-04-28T05:14:16;100140.23;;;12.83;61.37
62055;BME280;48653;51.742;-1.256;2023-04-28T05:16:41;100136.60;;;13.31;59.32
62055;BME280;48653;51.742;-1.256;2023-04-28T05:19:06;100138.93;;;13.01;61.09
62055;BME280;48653;51.742;-1.256;2023-04-28T05:21:31;100141.70;;;13.14;59.72
62055;BME280;48653;51.742;-1.256;2023-04-28T05:23:56;100143.38;;;13.31;59.02
62055;BME280;48653;51.742;-1.256;2023-04-28T05:26:21;100148.27;;;13.09;59.60
62055;BME280;48653;51.742;-1.256;2023-04-28T05:28:46;100149.35;;;13.32;59.09
62055;BME280;48653;51.742;-1.256;2023-04-28T05:31:11;100150.79;;;13.16;59.18
62055;BME280;48653;51.742;-1.256;2023-04-28T05:33:36;100151.87;;;13.22;59.45
62055;BME280;48653;51.742;-1.256;2023-04-28T05:36:02;100152.83;;;13.73;59.51
62055;BME280;48653;51.742;-1.256;2023-04-28T05:38:27;100151.33;;;13.13;59.75
62055;BME280;48653;51.742;-1.256;2023-04-28T05:40:53;100152.47;;;13.36;59.22
62055;BME280;48653;51.742;-1.256;2023-04-28T05:43:17;100147.04;;;13.79;58.17
62055;BME280;48653;51.742;-1.256;2023-04-28T05:45:42;100152.53;;;13.98;57.87
62055;BME280;48653;51.742;-1.256;2023-04-28T05:48:07;100157.35;;;13.60;57.89
62055;BME280;48653;51.742;-1.256;2023-04-28T05:50:32;100162.09;;;14.02;57.73
62055;BME280;48653;51.742;-1.256;2023-04-28T05:52:57;100167.08;;;13.48;58.82
62055;BME280;48653;51.742;-1.256;2023-04-28T05:55:22;100167.49;;;12.88;60.52
62055;BME280;48653;51.742;-1.256;2023-04-28T05:57:47;100164.79;;;13.09;60.07
62055;BME280;48653;51.742;-1.256;2023-04-28T06:00:13;100168.53;;;13.24;60.06
62055;BME280;48653;51.742;-1.256;2023-04-28T06:02:37;100177.43;;;12.61;60.99
62055;BME280;48653;51.742;-1.256;2023-04-28T06:05:03;100181.09;;;12.70;61.62
62055;BME280;48653;51.742;-1.256;2023-04-28T06:07:27;100185.15;;;12.09;63.34
62055;BME280;48653;51.742;-1.256;2023-04-28T06:09:53;100187.07;;;12.81;61.56
62055;BME280;48653;51.742;-1.256;2023-04-28T06:12:18;100189.84;;;12.13;63.55
62055;BME280;48653;51.742;-1.256;2023-04-28T06:14:43;100191.62;;;12.74;62.42
62055;BME280;48653;51.742;-1.256;2023-04-28T06:17:08;100197.52;;;12.97;61.34
62055;BME280;48653;51.742;-1.256;2023-04-28T06:19:33;100197.89;;;12.38;62.89
62055;BME280;48653;51.742;-1.256;2023-04-28T06:21:58;100197.72;;;12.47;62.58
62055;BME280;48653;51.742;-1.256;2023-04-28T06:24:23;100203.91;;;12.22;63.40
62055;BME280;48653;51.742;-1.256;2023-04-28T06:26:48;100207.89;;;11.68;65.14
62055;BME280;48653;51.742;-1.256;2023-04-28T06:29:13;100205.33;;;12.04;64.43
62055;BME280;48653;51.742;-1.256;2023-04-28T06:31:38;100208.08;;;12.75;62.98
62055;BME280;48653;51.742;-1.256;2023-04-28T06:34:03;100211.21;;;11.73;64.10
62055;BME280;48653;51.742;-1.256;2023-04-28T06:36:28;100212.52;;;11.83;64.99
62055;BME280;48653;51.742;-1.256;2023-04-28T06:38:53;100214.33;;;11.72;64.39
62055;BME280;48653;51.742;-1.256;2023-04-28T06:41:18;100220.61;;;12.47;62.99
62055;BME280;48653;51.742;-1.256;2023-04-28T06:43:43;100224.42;;;12.28;63.16
62055;BME280;48653;51.742;-1.256;2023-04-28T06:46:09;100224.99;;;12.72;62.06
62055;BME280;48653;51.742;-1.256;2023-04-28T06:48:34;100231.50;;;12.48;62.52
62055;BME280;48653;51.742;-1.256;2023-04-28T06:50:59;100232.60;;;13.03;61.26
62055;BME280;48653;51.742;-1.256;2023-04-28T06:53:24;100238.11;;;12.25;63.18
62055;BME280;48653;51.742;-1.256;2023-04-28T06:55:49;100239.32;;;12.10;63.99
62055;BME280;48653;51.742;-1.256;2023-04-28T06:58:14;100248.03;;;12.28;63.12
62055;BME280;48653;51.742;-1.256;2023-04-28T07:00:39;100250.82;;;11.35;65.65
62055;BME280;48653;51.742;-1.256;2023-04-28T07:03:04;100254.81;;;11.59;64.48
62055;BME280;48653;51.742;-1.256;2023-04-28T07:05:29;100254.86;;;11.57;64.65
62055;BME280;48653;51.742;-1.256;2023-04-28T07:07:54;100255.07;;;11.47;64.95
62055;BME280;48653;51.742;-1.256;2023-04-28T07:10:19;100256.62;;;11.63;65.72
62055;BME280;48653;51.742;-1.256;2023-04-28T07:12:44;100259.23;;;11.61;66.00
62055;BME280;48653;51.742;-1.256;2023-04-28T07:15:10;100265.14;;;12.00;64.52
62055;BME280;48653;51.742;-1.256;2023-04-28T07:17:34;100264.85;;;11.78;65.59
62055;BME280;48653;51.742;-1.256;2023-04-28T07:19:59;100260.08;;;11.72;65.74
62055;BME280;48653;51.742;-1.256;2023-04-28T07:22:24;100267.91;;;11.70;65.56
62055;BME280;48653;51.742;-1.256;2023-04-28T07:24:49;100268.39;;;11.70;65.76
62055;BME280;48653;51.742;-1.256;2023-04-28T07:27:14;100268.45;;;12.23;64.07
62055;BME280;48653;51.742;-1.256;2023-04-28T07:29:39;100274.77;;;12.08;63.82
62055;BME280;48653;51.742;-1.256;2023-04-28T07:32:04;100275.89;;;12.31;63.12
62055;BME280;48653;51.742;-1.256;2023-04-28T07:34:30;100272.90;;;12.12;63.51
62055;BME280;48653;51.742;-1.256;2023-04-28T07:36:56;100274.91;;;11.79;64.80
62055;BME280;48653;51.742;-1.256;2023-04-28T07:39:19;100277.67;;;12.40;63.94
62055;BME280;48653;51.742;-1.256;2023-04-28T07:41:45;100283.26;;;12.26;63.99
62055;BME280;48653;51.742;-1.256;2023-04-28T07:44:10;100284.80;;;12.20;64.01
62055;BME280;48653;51.742;-1.256;2023-04-28T07:46:35;100294.50;;;12.10;64.29
62055;BME280;48653;51.742;-1.256;2023-04-28T07:49:00;100288.65;;;11.51;65.44
62055;BME280;48653;51.742;-1.256;2023-04-28T07:51:25;100290.57;;;12.48;63.20
62055;BME280;48653;51.742;-1.256;2023-04-28T07:53:50;100295.61;;;12.60;62.70
62055;BME280;48653;51.742;-1.256;2023-04-28T07:56:15;100296.63;;;12.92;61.71
62055;BME280;48653;51.742;-1.256;2023-04-28T07:58:40;100299.57;;;13.49;60.46
62055;BME280;48653;51.742;-1.256;2023-04-28T08:01:05;100305.88;;;13.07;60.83
62055;BME280;48653;51.742;-1.256;2023-04-28T08:03:30;100315.58;;;12.26;62.47
62055;BME280;48653;51.742;-1.256;2023-04-28T08:05:55;100316.29;;;12.68;62.21
62055;BME280;48653;51.742;-1.256;2023-04-28T08:08:21;100313.43;;;13.23;61.01
62055;BME280;48653;51.742;-1.256;2023-04-28T08:10:46;100316.60;;;12.74;61.68
62055;BME280;48653;51.742;-1.256;2023-04-28T08:13:11;100322.10;;;13.05;61.28
62055;BME280;48653;51.742;-1.256;2023-04-28T08:15:37;100325.33;;;13.01;61.40
62055;BME280;48653;51.742;-1.256;2023-04-28T08:18:02;100331.15;;;12.33;63.50
62055;BME280;48653;51.742;-1.256;2023-04-28T08:20:27;100330.23;;;12.57;63.81
62055;BME280;48653;51.742;-1.256;2023-04-28T08:22:52;100333.64;;;12.49;63.14
62055;BME280;48653;51.742;-1.256;2023-04-28T08:25:17;100333.04;;;14.19;59.95
62055;BME280;48653;51.742;-1.256;2023-04-28T08:27:43;100338.99;;;13.05;61.90
62055;BME280;48653;51.742;-1.256;2023-04-28T08:30:09;100341.18;;;12.61;62.68
62055;BME280;48653;51.742;-1.256;2023-04-28T08:32:33;100339.02;;;13.54;60.78
62055;BME280;48653;51.742;-1.256;2023-04-28T08:34:59;100344.45;;;13.01;60.96
62055;BME280;48653;51.742;-1.256;2023-04-28T08:37:23;100344.95;;;13.51;61.09
62055;BME280;48653;51.742;-1.256;2023-04-28T08:39:48;100347.24;;;13.70;60.51
62055;BME280;48653;51.742;-1.256;2023-04-28T08:42:14;100346.42;;;13.96;59.90
62055;BME280;48653;51.742;-1.256;2023-04-28T08:44:39;100353.86;;;13.20;61.77
62055;BME280;48653;51.742;-1.256;2023-04-28T08:47:10;100350.74;;;13.64;60.99
62055;BME280;48653;51.742;-1.256;2023-04-28T08:49:34;100352.67;;;13.65;60.95
62055;BME280;48653;51.742;-1.256;2023-04-28T08:51:56;100360.46;;;13.85;61.32
62055;BME280;48653;51.742;-1.256;2023-04-28T08:54:20;100363.75;;;12.87;61.70
62055;BME280;48653;51.742;-1.256;2023-04-28T08:56:45;100363.60;;;13.24;60.93
62055;BME280;48653;51.742;-1.256;2023-04-28T08:59:11;100369.97;;;13.29;61.03
62055;BME280;48653;51.742;-1.256;2023-04-28T09:01:35;100371.00;;;13.83;60.36
62055;BME280;48653;51.742;-1.256;2023-04-28T09:04:00;100375.57;;;13.61;60.41
62055;BME280;48653;51.742;-1.256;2023-04-28T09:06:25;100380.40;;;13.75;60.08
62055;BME280;48653;51.742;-1.256;2023-04-28T09:08:50;100384.97;;;13.74;59.74
62055;BME280;48653;51.742;-1.256;2023-04-28T09:11:15;100387.02;;;13.42;60.82
62055;BME280;48653;51.742;-1.256;2023-04-28T09:13:40;100389.49;;;13.09;61.94
62055;BME280;48653;51.742;-1.256;2023-04-28T09:16:06;100397.72;;;13.54;60.98
62055;BME280;48653;51.742;-1.256;2023-04-28T09:18:31;100394.98;;;13.20;61.15
62055;BME280;48653;51.742;-1.256;2023-04-28T09:21:02;100401.19;;;13.23;61.21
62055;BME280;48653;51.742;-1.256;2023-04-28T09:23:21;100400.22;;;13.50;61.44
62055;BME280;48653;51.742;-1.256;2023-04-28T09:25:56;100404.51;;;12.98;61.32
62055;BME280;48653;51.742;-1.256;2023-04-28T09:28:18;100403.74;;;14.02;60.20
62055;BME280;48653;51.742;-1.256;2023-04-28T09:30:38;100404.87;;;14.40;59.69
62055;BME280;48653;51.742;-1.256;2023-04-28T09:33:04;100402.88;;;14.38;59.71
62055;BME280;48653;51.742;-1.256;2023-04-28T09:35:37;100407.85;;;13.91;60.59
62055;BME280;48653;51.742;-1.256;2023-04-28T09:37:57;100411.37;;;14.32;60.31
62055;BME280;48653;51.742;-1.256;2023-04-28T09:40:16;100407.30;;;14.36;59.10
62055;BME280;48653;51.742;-1.256;2023-04-28T09:42:42;100411.54;;;13.59;60.13
62055;BME280;48653;51.742;-1.256;2023-04-28T09:45:08;100417.67;;;13.78;60.87
62055;BME280;48653;51.742;-1.256;2023-04-28T09:47:32;100416.24;;;13.18;61.18
62055;BME280;48653;51.742;-1.256;2023-04-28T09:49:57;100415.21;;;14.16;60.09
62055;BME280;48653;51.742;-1.256;2023-04-28T09:52:22;100419.20;;;14.97;58.36
62055;BME280;48653;51.742;-1.256;2023-04-28T09:54:49;100422.51;;;14.06;58.99
62055;BME280;48653;51.742;-1.256;2023-04-28T09:57:12;100423.44;;;14.06;60.10
62055;BME280;48653;51.742;-1.256;2023-04-28T09:59:37;100422.88;;;14.65;60.20
62055;BME280;48653;51.742;-1.256;2023-04-28T10:02:03;100429.73;;;14.17;59.26
62055;BME280;48653;51.742;-1.256;2023-04-28T10:04:28;100436.08;;;14.81;58.03
62055;BME280;48653;51.742;-1.256;2023-04-28T10:06:52;100436.69;;;14.75;58.62
62055;BME280;48653;51.742;-1.256;2023-04-28T10:09:18;100436.15;;;15.41;57.70
62055;BME280;48653;51.742;-1.256;2023-04-28T10:11:43;100437.39;;;15.22;57.15
62055;BME280;48653;51.742;-1.256;2023-04-28T10:14:08;100437.39;;;14.67;58.00
62055;BME280;48653;51.742;-1.256;2023-04-28T10:16:33;100445.06;;;14.87;57.05
62055;BME280;48653;51.742;-1.256;2023-04-28T10:18:58;100445.02;;;14.37;57.52
62055;BME280;48653;51.742;-1.256;2023-04-28T10:21:24;100449.29;;;14.69;57.52
62055;BME280;48653;51.742;-1.256;2023-04-28T10:23:59;100452.48;;;15.29;56.64
62055;BME280;48653;51.742;-1.256;2023-04-28T10:26:14;100457.96;;;15.12;56.86
62055;BME280;48653;51.742;-1.256;2023-04-28T10:28:44;100456.33;;;15.54;55.70
62055;BME280;48653;51.742;-1.256;2023-04-28T10:31:08;100459.62;;;15.43;54.31
62055;BME280;48653;51.742;-1.256;2023-04-28T10:33:28;100465.53;;;16.18;55.13
62055;BME280;48653;51.742;-1.256;2023-04-28T10:35:53;100465.08;;;15.38;55.69
62055;BME280;48653;51.742;-1.256;2023-04-28T10:38:19;100470.00;;;15.89;54.41
62055;BME280;48653;51.742;-1.256;2023-04-28T10:40:44;100473.48;;;15.72;54.65
62055;BME280;48653;51.742;-1.256;2023-04-28T10:43:09;100477.07;;;16.42;53.42
62055;BME280;48653;51.742;-1.256;2023-04-28T10:48:00;100482.54;;;15.39;54.00
62055;BME280;48653;51.742;-1.256;2023-04-28T10:50:24;100493.44;;;15.75;52.71
62055;BME280;48653;51.742;-1.256;2023-04-28T10:52:49;100488.16;;;16.37;52.17
62055;BME280;48653;51.742;-1.256;2023-04-28T10:55:27;100490.76;;;15.90;52.12
62055;BME280;48653;51.742;-1.256;2023-04-28T10:57:39;100493.89;;;16.15;51.78
62055;BME280;48653;51.742;-1.256;2023-04-28T11:02:36;100498.73;;;16.40;51.50
62055;BME280;48653;51.742;-1.256;2023-04-28T11:05:11;100498.53;;;16.21;50.82
62055;BME280;48653;51.742;-1.256;2023-04-28T11:07:19;100496.27;;;16.26;49.69
62055;BME280;48653;51.742;-1.256;2023-04-28T11:09:47;100499.94;;;16.22;49.11
62055;BME280;48653;51.742;-1.256;2023-04-28T11:12:09;100501.29;;;17.28;46.69
62055;BME280;48653;51.742;-1.256;2023-04-28T11:14:35;100499.00;;;17.87;48.39
62055;BME280;48653;51.742;-1.256;2023-04-28T11:17:00;100496.94;;;16.88;46.85
62055;BME280;48653;51.742;-1.256;2023-04-28T11:19:26;100503.35;;;17.00;46.12
62055;BME280;48653;51.742;-1.256;2023-04-28T11:21:50;100506.98;;;17.52;46.34
62055;BME280;48653;51.742;-1.256;2023-04-28T11:24:14;100502.90;;;17.24;44.42
62055;BME280;48653;51.742;-1.256;2023-04-28T11:26:39;100499.65;;;18.79;44.95
62055;BME280;48653;51.742;-1.256;2023-04-28T11:29:04;100498.24;;;18.80;44.55
62055;BME280;48653;51.742;-1.256;2023-04-28T11:31:30;100495.73;;;19.23;44.47
62055;BME280;48653;51.742;-1.256;2023-04-28T11:33:59;100498.97;;;19.45;40.83
62055;BME280;48653;51.742;-1.256;2023-04-28T11:36:23;100505.71;;;17.91;42.74
62055;BME280;48653;51.742;-1.256;2023-04-28T11:38:47;100516.04;;;18.80;43.91
62055;BME280;48653;51.742;-1.256;2023-04-28T11:41:13;100508.58;;;17.02;43.42
62055;BME280;48653;51.742;-1.256;2023-04-28T11:43:38;100508.44;;;17.52;43.18
62055;BME280;48653;51.742;-1.256;2023-04-28T11:46:03;100508.01;;;17.10;43.06
62055;BME280;48653;51.742;-1.256;2023-04-28T11:48:28;100513.92;;;17.43;44.05
62055;BME280;48653;51.742;-1.256;2023-04-28T11:50:53;100510.93;;;17.75;43.37
62055;BME280;48653;51.742;-1.256;2023-04-28T11:53:18;100511.78;;;17.26;43.80
62055;BME280;48653;51.742;-1.256;2023-04-28T11:55:43;100516.11;;;17.29;43.61
62055;BME280;48653;51.742;-1.256;2023-04-28T11:58:17;100518.07;;;17.55;43.61
62055;BME280;48653;51.742;-1.256;2023-04-28T12:00:34;100522.89;;;15.98;45.87
62055;BME280;48653;51.742;-1.256;2023-04-28T12:03:06;100525.26;;;16.75;44.97
62055;BME280;48653;51.742;-1.256;2023-04-28T12:05:23;100522.57;;;16.58;45.34
62055;BME280;48653;51.742;-1.256;2023-04-28T12:07:49;100527.75;;;17.70;44.17
62055;BME280;48653;51.742;-1.256;2023-04-28T12:10:14;100530.89;;;17.43;44.78
62055;BME280;48653;51.742;-1.256;2023-04-28T12:12:39;100531.73;;;17.46;44.35
62055;BME280;48653;51.742;-1.256;2023-04-28T12:15:05;100531.66;;;17.32;43.59
62055;BME280;48653;51.742;-1.256;2023-04-28T12:17:32;100535.40;;;17.77;43.29
62055;BME280;48653;51.742;-1.256;2023-04-28T12:19:54;100540.56;;;16.54;44.97
62055;BME280;48653;51.742;-1.256;2023-04-28T12:22:18;100538.60;;;17.12;44.40
62055;BME280;48653;51.742;-1.256;2023-04-28T12:24:44;100541.97;;;17.28;44.69
62055;BME280;48653;51.742;-1.256;2023-04-28T12:27:16;100550.14;;;16.86;44.90
62055;BME280;48653;51.742;-1.256;2023-04-28T12:29:36;100546.77;;;17.36;44.48
62055;BME280;48653;51.742;-1.256;2023-04-28T12:31:58;100546.12;;;17.16;43.39
62055;BME280;48653;51.742;-1.256;2023-04-28T12:34:23;100550.77;;;17.85;43.00